Página principal
METAR-TAF:

METAR-TAF

Aeroportos :

Bryan, Texas, Estados Unidos

latitude: 30-42-56N, longitude: 096-19-53W, altura: 112 m

Observação actual do tempo

O boletim foi feito há 16 minutos, às 14:35 UTC
Vento 14 kt de oes-noroeste com rajadas de 19 kt
Temperatura 14°C
Humidade 100%
Pressão 1014 hPa
Visibilidade: 16.1 km
Nuvens dispersasa uma altura de 400 ft
Nuvens fragmentadasa uma altura de 2000 ft
Encobertoa uma altura de 2700 ft
chuva fraca

METAR: KCFD 231435Z AUTO 30014G19KT 10SM -RA SCT004 BKN020 OVC027 14/14 A2994 RMK AO2 P0001 T01350135

Hora: 07:51 (14:51 UTC)


TAF: em falta

Observações e previsões do tempo de mais de 4000 aeroportos (mensagens METAR e TAF).

As estações disponíveis são os pontos amarelos e vermelhos sobre o mapa.

Mova o rato sobre o mapa para ver o nome da estação.

Depois clique no ponto para visualizar as observações e previsões meteorológicas.

Para alterar o mapa : clique nos botões verdes com uma cruz preta para aumentar o zoom; no botão verde com uma pitada de zoom; ou nas setas verdes para mapas adjacentes.


METAR-TAF: